YAYE/AYQ METAR and TAF weather

Enter ICAO airport designator
Station Type Date Time Source
YAYE METAR 2019/10/22 16:00 UTC NOAA

YAYE 221600Z AUTO 12003KT 9999 // NCD 20/M06 Q1015


Station Type Date Time Source
YAYE Decoded METAR 2019/10/22 16:00 UTC NOAA

Ayers Rock, Australia (YAYE) 25-11S 130-58E
Oct 22, 2019 - 12:00 PM EDT / 2019.10.22 1600 UTC
Wind: from the ESE (120 degrees) at 3 MPH (3 KT):0
Visibility: greater than 7 mile(s):0
Temperature: 68 F (20 C)
Dew Point: 21 F (-6 C)
Relative Humidity: 16%
Pressure (altimeter): 29.97 in. Hg (1015 hPa)
ob: YAYE 221600Z AUTO 12003KT 9999 // NCD 20/M06 Q1015
cycle: 16

Station Type Date Time Source
YAYE TAF UTC NOAA

Error!

Example: see airport list